createdAt,value
2018-06-04T00:02:09.455Z,17.70
2018-06-04T00:04:37.404Z,17.60
2018-06-04T00:07:05.281Z,17.60
2018-06-04T00:09:33.134Z,17.50
2018-06-04T00:12:01.098Z,17.50
2018-06-04T00:14:28.994Z,17.50
2018-06-04T00:16:56.906Z,17.50
2018-06-04T00:21:52.672Z,17.40
2018-06-04T00:24:20.555Z,17.40
2018-06-04T00:26:48.358Z,17.30
2018-06-04T00:29:16.250Z,17.30
2018-06-04T00:31:44.069Z,17.30
2018-06-04T00:34:11.922Z,17.20
2018-06-04T00:39:08.118Z,17.20
2018-06-04T00:41:36.363Z,17.20
2018-06-04T00:44:04.370Z,17.10
2018-06-04T00:46:32.231Z,17.10
2018-06-04T00:49:00.225Z,17.10
2018-06-04T00:51:28.071Z,17.00
2018-06-04T00:53:55.985Z,17.00
2018-06-04T00:56:24.687Z,17.00
2018-06-04T00:58:52.665Z,16.90
2018-06-04T01:01:20.592Z,16.90
2018-06-04T01:03:48.545Z,17.00
2018-06-04T01:06:16.427Z,16.90
2018-06-04T01:08:44.254Z,16.80
2018-06-04T01:11:12.189Z,16.90
2018-06-04T01:13:40.083Z,16.90
2018-06-04T01:16:07.977Z,16.80
2018-06-04T01:18:35.892Z,16.80
2018-06-04T01:21:03.823Z,16.80
2018-06-04T01:23:31.681Z,16.80
2018-06-04T01:25:59.541Z,16.80
2018-06-04T01:28:27.409Z,16.90
2018-06-04T01:30:55.334Z,16.90
2018-06-04T01:35:51.023Z,16.80
2018-06-04T01:38:18.890Z,16.80
2018-06-04T01:40:46.722Z,16.70
2018-06-04T01:43:14.591Z,16.60
2018-06-04T01:45:42.503Z,16.60
2018-06-04T01:48:10.381Z,16.70
2018-06-04T01:50:38.301Z,16.60
2018-06-04T01:53:06.186Z,16.50
2018-06-04T01:55:34.095Z,16.50
2018-06-04T01:58:01.979Z,16.50
2018-06-04T02:00:29.825Z,16.50
2018-06-04T02:02:57.652Z,16.50
2018-06-04T02:05:25.676Z,16.50
2018-06-04T02:07:53.541Z,16.50
2018-06-04T02:10:21.409Z,16.40
2018-06-04T02:12:49.209Z,16.30
2018-06-04T02:15:17.099Z,16.20
2018-06-04T02:17:44.961Z,16.40
2018-06-04T02:20:12.889Z,16.30
2018-06-04T02:22:40.678Z,16.30
2018-06-04T02:25:08.559Z,16.40
2018-06-04T02:27:36.446Z,16.30
2018-06-04T02:30:04.802Z,16.20
2018-06-04T02:32:32.707Z,16.20
2018-06-04T02:35:00.557Z,16.20
2018-06-04T02:37:28.378Z,16.30
2018-06-04T02:42:24.046Z,16.30
2018-06-04T02:44:51.914Z,16.30
2018-06-04T02:47:19.841Z,16.30
2018-06-04T02:49:47.784Z,16.20
2018-06-04T02:52:15.598Z,16.20
2018-06-04T02:54:43.442Z,16.20
2018-06-04T02:57:11.367Z,16.10
2018-06-04T02:59:39.241Z,16.10
2018-06-04T03:02:07.109Z,16.10
2018-06-04T03:04:35.002Z,16.30
2018-06-04T03:07:02.894Z,16.10
2018-06-04T03:09:30.793Z,16.20
2018-06-04T03:11:58.673Z,16.20
2018-06-04T03:14:26.626Z,16.10
2018-06-04T03:16:54.467Z,16.20
2018-06-04T03:19:22.398Z,16.10
2018-06-04T03:24:18.064Z,16.10
2018-06-04T03:26:45.905Z,16.10
2018-06-04T03:29:13.842Z,16.10
2018-06-04T03:31:41.682Z,16.10
2018-06-04T03:34:09.541Z,16.10
2018-06-04T03:36:37.413Z,16.10
2018-06-04T03:39:11.007Z,16.10
2018-06-04T03:41:39.012Z,16.20
2018-06-04T03:44:06.854Z,16.20
2018-06-04T03:46:35.880Z,16.20
2018-06-04T03:49:04.885Z,16.20
2018-06-04T03:51:33.530Z,16.20
2018-06-04T03:54:01.530Z,16.20
2018-06-04T03:58:58.447Z,16.30
2018-06-04T04:01:27.944Z,16.30
2018-06-04T04:03:55.834Z,16.40
2018-06-04T04:06:23.725Z,16.50
2018-06-04T04:08:51.610Z,16.50
2018-06-04T04:11:19.515Z,16.50
2018-06-04T04:13:47.424Z,16.50
2018-06-04T04:16:15.242Z,16.50
2018-06-04T04:18:43.129Z,16.70
2018-06-04T04:21:11.012Z,16.70
2018-06-04T04:23:38.889Z,16.70
2018-06-04T04:26:06.806Z,16.70
2018-06-04T04:28:34.694Z,16.80
2018-06-04T04:33:30.410Z,16.90
2018-06-04T04:35:58.862Z,16.90
2018-06-04T04:38:26.700Z,17.00
2018-06-04T04:40:54.589Z,17.00
2018-06-04T04:43:22.478Z,17.10
2018-06-04T04:45:50.855Z,17.10
2018-06-04T04:48:19.303Z,17.20
2018-06-04T04:50:47.226Z,17.30
2018-06-04T04:53:15.074Z,17.40
2018-06-04T04:55:42.868Z,17.70
2018-06-04T04:58:10.988Z,18.60
2018-06-04T05:00:39.509Z,19.40
2018-06-04T05:03:07.425Z,20.00
2018-06-04T05:05:35.512Z,20.70
2018-06-04T05:08:03.395Z,21.30
2018-06-04T05:10:31.297Z,21.70
2018-06-04T05:13:00.143Z,22.20
2018-06-04T05:15:30.014Z,22.70
2018-06-04T05:17:58.254Z,23.50
2018-06-04T05:20:26.115Z,23.40
2018-06-04T05:22:54.013Z,24.10
2018-06-04T05:25:21.861Z,24.40
2018-06-04T05:27:50.329Z,25.00
2018-06-04T05:30:18.866Z,24.00
2018-06-04T05:32:46.714Z,24.60
2018-06-04T05:35:14.599Z,25.80
2018-06-04T05:37:42.421Z,25.90
2018-06-04T05:40:10.706Z,25.80
2018-06-04T05:42:39.249Z,25.50
2018-06-04T05:47:34.922Z,25.90
2018-06-04T05:50:02.869Z,24.50
2018-06-04T05:52:30.719Z,24.90
2018-06-04T05:54:58.561Z,24.90
2018-06-04T05:57:26.458Z,25.10
2018-06-04T05:59:54.253Z,25.20
2018-06-04T06:04:49.998Z,26.20
2018-06-04T06:09:45.709Z,26.20
2018-06-04T06:12:13.589Z,25.80
2018-06-04T06:14:41.457Z,25.00
2018-06-04T06:17:09.476Z,24.70
2018-06-04T06:19:37.369Z,25.10
2018-06-04T06:22:05.243Z,24.90
2018-06-04T06:24:33.177Z,24.80
2018-06-04T06:27:04.895Z,24.70
2018-06-04T06:29:32.786Z,24.00
2018-06-04T06:32:00.561Z,24.50
2018-06-04T06:34:28.497Z,24.20
2018-06-04T06:36:56.352Z,24.40
2018-06-04T06:39:24.441Z,24.80
2018-06-04T06:41:52.286Z,24.00
2018-06-04T06:44:20.139Z,24.10
2018-06-04T06:49:15.892Z,23.80
2018-06-04T06:51:43.744Z,23.70
2018-06-04T06:54:11.623Z,24.20
2018-06-04T06:59:07.348Z,26.20
2018-06-04T07:01:35.265Z,26.30
2018-06-04T07:04:03.146Z,25.80
2018-06-04T07:06:31.011Z,25.50
2018-06-04T07:08:58.897Z,25.50
2018-06-04T07:11:26.730Z,25.30
2018-06-04T07:13:54.618Z,24.70
2018-06-04T07:16:22.505Z,24.80
2018-06-04T07:18:50.416Z,24.60
2018-06-04T07:21:18.333Z,24.20
2018-06-04T07:23:46.143Z,24.00
2018-06-04T07:26:14.010Z,23.60
2018-06-04T07:28:41.920Z,23.80
2018-06-04T07:31:09.749Z,23.70
2018-06-04T07:33:37.605Z,24.10
2018-06-04T07:36:10.913Z,24.30
2018-06-04T07:38:39.377Z,24.30
2018-06-04T07:41:07.330Z,24.60
2018-06-04T07:43:35.141Z,24.20
2018-06-04T07:46:03.082Z,24.20
2018-06-04T07:48:30.943Z,24.20
2018-06-04T07:50:58.782Z,24.00
2018-06-04T07:53:26.705Z,24.30
2018-06-04T07:55:54.590Z,24.30
2018-06-04T07:58:22.457Z,24.60
2018-06-04T08:00:50.429Z,24.30
2018-06-04T08:03:18.173Z,24.00
2018-06-04T08:05:46.054Z,23.70
2018-06-04T08:08:13.980Z,23.90
2018-06-04T08:10:41.945Z,24.40
2018-06-04T08:13:09.801Z,24.10
2018-06-04T08:15:37.725Z,24.40
2018-06-04T08:18:05.685Z,24.60
2018-06-04T08:20:33.522Z,24.30
2018-06-04T08:23:01.403Z,24.30
2018-06-04T08:25:29.289Z,24.20
2018-06-04T08:27:57.161Z,24.40
2018-06-04T08:30:25.052Z,24.30
2018-06-04T08:32:52.872Z,24.60
2018-06-04T08:35:20.781Z,24.50
2018-06-04T08:37:48.661Z,24.60
2018-06-04T08:40:16.607Z,24.60
2018-06-04T08:42:44.415Z,24.70
2018-06-04T08:45:12.273Z,24.80
2018-06-04T08:47:40.142Z,24.90
2018-06-04T08:50:08.090Z,24.80
2018-06-04T08:52:35.974Z,25.00
2018-06-04T08:55:03.909Z,25.10
2018-06-04T08:57:31.827Z,25.40
2018-06-04T09:00:00.177Z,25.50
2018-06-04T09:02:28.014Z,25.40
2018-06-04T09:04:55.834Z,25.50
2018-06-04T09:07:23.709Z,25.60
2018-06-04T09:09:51.579Z,25.10
2018-06-04T09:12:19.473Z,25.30
2018-06-04T09:14:50.475Z,25.30
2018-06-04T09:17:18.318Z,25.10
2018-06-04T09:19:46.210Z,25.30
2018-06-04T09:22:14.125Z,25.50
2018-06-04T09:24:41.976Z,25.40
2018-06-04T09:27:09.897Z,25.50
2018-06-04T09:29:37.770Z,25.70
2018-06-04T09:32:05.667Z,25.90
2018-06-04T09:34:33.472Z,26.00
2018-06-04T09:37:01.337Z,26.00
2018-06-04T09:39:29.165Z,25.80
2018-06-04T09:44:24.865Z,26.30
2018-06-04T09:46:52.690Z,26.20
2018-06-04T09:51:48.393Z,26.60
2018-06-04T09:54:16.214Z,27.20
2018-06-04T09:56:46.218Z,28.20
2018-06-04T09:59:14.059Z,29.40
2018-06-04T10:01:42.010Z,30.90
2018-06-04T10:04:09.842Z,31.30
2018-06-04T10:06:37.709Z,31.20
2018-06-04T10:09:07.741Z,31.90
2018-06-04T10:11:35.619Z,32.30
2018-06-04T10:14:03.585Z,32.00
2018-06-04T10:16:31.438Z,32.40
2018-06-04T10:18:59.312Z,32.70
2018-06-04T10:21:27.180Z,33.10
2018-06-04T10:23:55.058Z,33.90
2018-06-04T10:26:22.925Z,34.30
2018-06-04T10:28:50.787Z,34.60
2018-06-04T10:31:18.722Z,34.80
2018-06-04T10:33:46.651Z,34.80
2018-06-04T10:36:14.497Z,35.00
2018-06-04T10:38:42.327Z,34.80
2018-06-04T10:41:10.177Z,35.90
2018-06-04T10:43:38.077Z,36.50
2018-06-04T10:46:05.942Z,37.00
2018-06-04T10:48:33.773Z,36.60
2018-06-04T10:51:01.644Z,36.30
2018-06-04T10:53:29.470Z,36.50
2018-06-04T10:55:57.389Z,36.40
2018-06-04T10:58:25.209Z,36.20
2018-06-04T11:00:53.097Z,37.20
2018-06-04T11:03:20.921Z,38.20
2018-06-04T11:05:48.837Z,36.20
2018-06-04T11:08:16.713Z,37.30
2018-06-04T11:10:44.600Z,38.10
2018-06-04T11:13:12.524Z,38.50
2018-06-04T11:15:40.376Z,38.10
2018-06-04T11:18:08.265Z,38.10
2018-06-04T11:20:36.213Z,39.00
2018-06-04T11:23:04.203Z,39.80
2018-06-04T11:25:32.092Z,39.40
2018-06-04T11:27:59.945Z,39.40
2018-06-04T11:30:27.939Z,38.40
2018-06-04T11:35:23.525Z,37.70
2018-06-04T11:37:51.448Z,37.30
2018-06-04T11:40:19.342Z,37.70
2018-06-04T11:42:47.217Z,38.30
2018-06-04T11:45:15.130Z,39.00
2018-06-04T11:47:42.921Z,39.80
2018-06-04T11:52:38.753Z,38.00
2018-06-04T11:55:06.666Z,37.50
2018-06-04T12:00:02.313Z,38.50
2018-06-04T12:02:30.086Z,39.00
2018-06-04T12:04:57.948Z,38.90
2018-06-04T12:07:25.861Z,38.60
2018-06-04T12:09:53.712Z,38.30
2018-06-04T12:12:21.624Z,38.90
2018-06-04T12:14:49.452Z,39.00
2018-06-04T12:17:17.340Z,38.90
2018-06-04T12:19:45.520Z,39.10
2018-06-04T12:22:13.392Z,39.20
2018-06-04T12:24:41.244Z,39.20
2018-06-04T12:27:09.131Z,39.00
2018-06-04T12:29:37.021Z,39.10
2018-06-04T12:32:04.961Z,39.00
2018-06-04T12:34:32.836Z,39.30
2018-06-04T12:37:00.641Z,39.10
2018-06-04T12:39:30.056Z,39.00
2018-06-04T12:41:57.927Z,38.90
2018-06-04T12:44:27.319Z,38.40
2018-06-04T12:46:55.147Z,38.40
2018-06-04T12:49:22.997Z,39.00
2018-06-04T12:51:50.901Z,38.40
2018-06-04T12:54:18.777Z,37.60
2018-06-04T12:56:46.761Z,37.30
2018-06-04T12:59:14.568Z,37.80
2018-06-04T13:01:42.508Z,38.20
2018-06-04T13:04:10.381Z,37.80
2018-06-04T13:06:38.250Z,37.10
2018-06-04T13:09:07.430Z,37.10
2018-06-04T13:11:35.446Z,37.50
2018-06-04T13:14:05.499Z,38.20
2018-06-04T13:16:33.360Z,37.10
2018-06-04T13:19:01.388Z,38.10
2018-06-04T13:21:29.208Z,38.20
2018-06-04T13:23:57.072Z,37.80
2018-06-04T13:26:28.941Z,37.70
2018-06-04T13:28:56.925Z,37.40
2018-06-04T13:33:52.761Z,36.30
2018-06-04T13:36:20.670Z,36.90
2018-06-04T13:38:48.549Z,36.00
2018-06-04T13:41:17.088Z,36.10
2018-06-04T13:43:44.924Z,36.20
2018-06-04T13:46:12.748Z,34.60
2018-06-04T13:48:40.647Z,34.10
2018-06-04T13:51:08.591Z,34.10
2018-06-04T13:56:04.335Z,34.10
2018-06-04T13:58:36.849Z,33.70
2018-06-04T14:01:05.132Z,32.90
2018-06-04T14:03:32.917Z,32.70
2018-06-04T14:06:00.861Z,33.00
2018-06-04T14:08:28.729Z,33.00
2018-06-04T14:10:56.603Z,32.70
2018-06-04T14:13:24.435Z,32.40
2018-06-04T14:15:52.301Z,32.80
2018-06-04T14:18:20.174Z,32.60
2018-06-04T14:20:47.997Z,32.20
2018-06-04T14:23:15.821Z,32.00
2018-06-04T14:25:43.733Z,31.60
2018-06-04T14:28:11.589Z,31.60
2018-06-04T14:30:39.484Z,31.80
2018-06-04T14:33:07.355Z,31.30
2018-06-04T14:35:35.218Z,31.10
2018-06-04T14:38:03.094Z,31.20
2018-06-04T14:40:30.945Z,31.20
2018-06-04T14:42:58.973Z,30.80
2018-06-04T14:45:26.761Z,30.60
2018-06-04T14:47:54.609Z,30.60
2018-06-04T14:50:23.561Z,30.90
2018-06-04T14:52:51.413Z,30.60
2018-06-04T14:55:19.324Z,30.50
2018-06-04T14:57:47.199Z,30.60
2018-06-04T15:00:15.117Z,30.50
2018-06-04T15:02:43.084Z,30.50
2018-06-04T15:05:11.028Z,30.40
2018-06-04T15:07:38.901Z,30.30
2018-06-04T15:10:06.821Z,29.80
2018-06-04T15:12:34.693Z,29.70
2018-06-04T15:15:02.614Z,29.70
2018-06-04T15:17:30.518Z,29.70
2018-06-04T15:19:58.336Z,29.80
2018-06-04T15:22:26.241Z,29.70
2018-06-04T15:24:54.132Z,30.00
2018-06-04T15:27:21.982Z,29.80
2018-06-04T15:29:49.917Z,29.80
2018-06-04T15:32:20.673Z,29.80
2018-06-04T15:34:49.765Z,29.60
2018-06-04T15:37:17.609Z,29.40
2018-06-04T15:39:45.465Z,29.50
2018-06-04T15:42:16.487Z,29.70
2018-06-04T15:44:44.432Z,29.80
2018-06-04T15:47:12.289Z,29.40
2018-06-04T15:49:40.172Z,29.60
2018-06-04T15:52:08.036Z,29.60
2018-06-04T15:57:03.909Z,29.30
2018-06-04T15:59:31.811Z,29.40
2018-06-04T16:01:59.655Z,29.40
2018-06-04T16:04:27.555Z,29.20
2018-06-04T16:07:04.756Z,29.20
2018-06-04T16:09:37.846Z,29.00
2018-06-04T16:12:05.885Z,29.00
2018-06-04T16:14:33.745Z,28.90
2018-06-04T16:17:01.679Z,29.10
2018-06-04T16:19:29.554Z,29.10
2018-06-04T16:26:54.089Z,29.00
2018-06-04T16:31:50.684Z,29.00
2018-06-04T16:34:18.608Z,28.90
2018-06-04T16:36:47.984Z,28.80
2018-06-04T16:39:16.133Z,28.80
2018-06-04T16:41:44.052Z,28.70
2018-06-04T16:44:11.989Z,28.70
2018-06-04T16:46:39.822Z,28.50
2018-06-04T16:49:07.681Z,28.60
2018-06-04T16:51:35.541Z,28.50
2018-06-04T16:54:03.369Z,28.60
2018-06-04T16:56:31.297Z,28.40
2018-06-04T16:58:59.212Z,28.10
2018-06-04T17:01:27.048Z,28.30
2018-06-04T17:03:54.965Z,28.30
2018-06-04T17:06:23.870Z,28.00
2018-06-04T17:08:51.760Z,28.10
2018-06-04T17:11:19.628Z,28.20
2018-06-04T17:13:47.493Z,28.20
2018-06-04T17:16:15.796Z,28.20
2018-06-04T17:18:44.029Z,28.00
2018-06-04T17:21:11.922Z,28.00
2018-06-04T17:23:39.773Z,27.90
2018-06-04T17:26:07.624Z,27.80
2018-06-04T17:28:35.513Z,27.80
2018-06-04T17:31:03.439Z,27.80
2018-06-04T17:33:31.345Z,27.70
2018-06-04T17:35:59.198Z,27.60
2018-06-04T17:38:27.151Z,27.60
2018-06-04T17:40:54.964Z,27.50
2018-06-04T17:43:22.885Z,27.50
2018-06-04T17:45:50.729Z,27.50
2018-06-04T17:48:18.710Z,27.40
2018-06-04T17:50:46.549Z,27.30
2018-06-04T17:53:14.368Z,27.20
2018-06-04T17:55:42.222Z,27.10
2018-06-04T17:58:13.470Z,27.10
2018-06-04T18:00:41.344Z,27.10
2018-06-04T18:03:09.156Z,27.00
2018-06-04T18:05:37.021Z,26.90
2018-06-04T18:08:04.942Z,26.90
2018-06-04T18:10:32.823Z,26.80
2018-06-04T18:13:00.765Z,26.70
2018-06-04T18:15:28.622Z,26.70
2018-06-04T18:17:56.442Z,26.50
2018-06-04T18:20:24.382Z,26.50
2018-06-04T18:22:52.281Z,26.40
2018-06-04T18:25:20.226Z,26.30
2018-06-04T18:27:48.109Z,26.20
2018-06-04T18:30:16.800Z,26.10
2018-06-04T18:32:44.644Z,26.10
2018-06-04T18:35:12.564Z,26.00
2018-06-04T18:37:40.489Z,26.00
2018-06-04T18:40:08.755Z,25.90
2018-06-04T18:42:36.668Z,25.80
2018-06-04T18:45:04.565Z,25.70
2018-06-04T18:47:32.437Z,25.70
2018-06-04T18:50:00.505Z,25.60
2018-06-04T18:52:28.805Z,25.60
2018-06-04T18:54:56.809Z,25.40
2018-06-04T18:57:25.240Z,25.30
2018-06-04T18:59:53.597Z,25.20
2018-06-04T19:02:21.640Z,25.20
2018-06-04T19:04:49.606Z,25.00
2018-06-04T19:07:17.714Z,25.00
2018-06-04T19:09:45.643Z,24.90
2018-06-04T19:12:14.751Z,24.80
2018-06-04T19:14:42.776Z,24.70
2018-06-04T19:17:10.613Z,24.60
2018-06-04T19:19:38.528Z,24.50
2018-06-04T19:22:06.576Z,24.40
2018-06-04T19:24:34.488Z,24.40
2018-06-04T19:27:02.452Z,24.20
2018-06-04T19:29:30.278Z,24.20
2018-06-04T19:31:58.175Z,24.10
2018-06-04T19:34:25.945Z,24.10
2018-06-04T19:36:53.824Z,24.00
2018-06-04T19:39:21.690Z,23.90
2018-06-04T19:41:49.657Z,23.80
2018-06-04T19:44:17.483Z,23.70
2018-06-04T19:46:45.350Z,23.60
2018-06-04T19:49:13.182Z,23.60
2018-06-04T19:54:09.170Z,23.40
2018-06-04T19:56:37.085Z,23.30
2018-06-04T19:59:05.125Z,23.30
2018-06-04T20:01:32.932Z,23.20
2018-06-04T20:04:00.757Z,23.20
2018-06-04T20:06:28.637Z,23.20
2018-06-04T20:08:56.514Z,23.20
2018-06-04T20:11:24.403Z,23.10
2018-06-04T20:13:52.293Z,23.10
2018-06-04T20:16:20.148Z,23.00
2018-06-04T20:18:48.076Z,23.00
2018-06-04T20:21:15.922Z,22.90
2018-06-04T20:23:43.798Z,22.90
2018-06-04T20:26:11.678Z,22.90
2018-06-04T20:31:07.464Z,22.80
2018-06-04T20:33:35.305Z,22.80
2018-06-04T20:36:03.268Z,22.70
2018-06-04T20:40:58.936Z,22.60
2018-06-04T20:43:26.729Z,22.50
2018-06-04T20:45:54.686Z,22.40
2018-06-04T20:48:22.708Z,22.40
2018-06-04T20:50:50.716Z,22.30
2018-06-04T20:53:18.703Z,22.30
2018-06-04T20:55:46.596Z,22.20
2018-06-04T20:58:14.593Z,22.20
2018-06-04T21:00:42.449Z,22.10
2018-06-04T21:03:10.237Z,22.10
2018-06-04T21:05:38.052Z,22.00
2018-06-04T21:08:05.955Z,22.00
2018-06-04T21:10:33.858Z,22.00
2018-06-04T21:13:01.754Z,21.90
2018-06-04T21:15:29.834Z,21.90
2018-06-04T21:17:57.692Z,21.80
2018-06-04T21:20:25.604Z,21.80
2018-06-04T21:22:53.485Z,21.70
2018-06-04T21:25:21.504Z,21.70
2018-06-04T21:27:52.886Z,21.60
2018-06-04T21:30:21.109Z,21.60
2018-06-04T21:32:49.116Z,21.50
2018-06-04T21:35:16.974Z,21.50
2018-06-04T21:37:44.805Z,21.40
2018-06-04T21:40:12.669Z,21.40
2018-06-04T21:42:40.472Z,21.30
2018-06-04T21:45:08.355Z,21.30
2018-06-04T21:47:36.504Z,21.30
2018-06-04T21:50:04.485Z,21.20
2018-06-04T21:52:32.421Z,21.20
2018-06-04T21:57:28.282Z,21.10
2018-06-04T21:59:56.511Z,21.00
2018-06-04T22:02:24.361Z,20.90
2018-06-04T22:04:52.511Z,20.90
2018-06-04T22:07:20.721Z,20.80
2018-06-04T22:09:48.592Z,20.80
2018-06-04T22:12:16.504Z,20.80
2018-06-04T22:17:12.339Z,20.70
2018-06-04T22:19:40.233Z,20.70
2018-06-04T22:22:08.131Z,20.60
2018-06-04T22:24:36.216Z,20.50
2018-06-04T22:27:04.170Z,20.50
2018-06-04T22:29:32.128Z,20.50
2018-06-04T22:32:00.365Z,20.50
2018-06-04T22:34:31.675Z,20.40
2018-06-04T22:36:59.536Z,20.40
2018-06-04T22:39:27.583Z,20.30
2018-06-04T22:41:55.673Z,20.30
2018-06-04T22:44:23.524Z,20.20
2018-06-04T22:46:51.377Z,20.20
2018-06-04T22:49:19.277Z,20.20
2018-06-04T22:51:47.191Z,20.10
2018-06-04T22:54:15.151Z,20.10
2018-06-04T22:56:42.974Z,20.00
2018-06-04T22:59:10.789Z,20.00
2018-06-04T23:01:38.660Z,20.00
2018-06-04T23:04:07.118Z,19.90
2018-06-04T23:06:35.661Z,19.90
2018-06-04T23:09:06.025Z,19.80
2018-06-04T23:11:34.044Z,19.80
2018-06-04T23:14:02.689Z,19.80
2018-06-04T23:16:30.592Z,19.80
2018-06-04T23:18:59.107Z,19.70
2018-06-04T23:21:27.020Z,19.70
2018-06-04T23:23:54.921Z,19.70
2018-06-04T23:26:22.980Z,19.70
2018-06-04T23:28:50.910Z,19.70
2018-06-04T23:31:18.824Z,19.60
2018-06-04T23:33:46.688Z,19.50
2018-06-04T23:36:14.560Z,19.50
2018-06-04T23:38:42.440Z,19.50
2018-06-04T23:41:10.265Z,19.50
2018-06-04T23:43:38.053Z,19.50
2018-06-04T23:46:06.056Z,19.40
2018-06-04T23:48:34.121Z,19.40
2018-06-04T23:51:01.966Z,19.30
2018-06-04T23:53:29.805Z,19.30
2018-06-04T23:55:57.649Z,19.30
2018-06-04T23:58:25.479Z,19.20
